sensor_id;sensor_type;location;lat;lon;timestamp;P1;durP1;ratioP1;P2;durP2;ratioP2
11865;SDS011;5992;52.744;6.898;2023-07-29T00:00:37;9.30;;;4.60;;
11865;SDS011;5992;52.744;6.898;2023-07-29T00:03:52;5.65;;;5.15;;
11865;SDS011;5992;52.744;6.898;2023-07-29T00:07:04;7.17;;;5.27;;
11865;SDS011;5992;52.744;6.898;2023-07-29T00:10:21;7.67;;;5.20;;
11865;SDS011;5992;52.744;6.898;2023-07-29T00:13:33;5.73;;;4.53;;
11865;SDS011;5992;52.744;6.898;2023-07-29T00:16:46;6.73;;;5.20;;
11865;SDS011;5992;52.744;6.898;2023-07-29T00:19:59;5.65;;;5.15;;
11865;SDS011;5992;52.744;6.898;2023-07-29T00:23:11;5.37;;;4.83;;
11865;SDS011;5992;52.744;6.898;2023-07-29T00:26:13;8.40;;;5.10;;
11865;SDS011;5992;52.744;6.898;2023-07-29T00:29:38;6.20;;;5.60;;
11865;SDS011;5992;52.744;6.898;2023-07-29T00:32:38;9.00;;;5.40;;
11865;SDS011;5992;52.744;6.898;2023-07-29T00:35:50;7.13;;;6.43;;
11865;SDS011;5992;52.744;6.898;2023-07-29T00:38:50;6.57;;;5.90;;
11865;SDS011;5992;52.744;6.898;2023-07-29T00:42:04;6.15;;;5.50;;
11865;SDS011;5992;52.744;6.898;2023-07-29T00:45:28;9.60;;;7.75;;
11865;SDS011;5992;52.744;6.898;2023-07-29T00:48:52;6.63;;;5.67;;
11865;SDS011;5992;52.744;6.898;2023-07-29T00:52:04;6.15;;;5.55;;
11865;SDS011;5992;52.744;6.898;2023-07-29T00:55:18;7.07;;;6.20;;
11865;SDS011;5992;52.744;6.898;2023-07-29T00:58:32;8.50;;;7.10;;
11865;SDS011;5992;52.744;6.898;2023-07-29T01:01:57;7.00;;;5.87;;
11865;SDS011;5992;52.744;6.898;2023-07-29T01:04:58;8.10;;;6.60;;
11865;SDS011;5992;52.744;6.898;2023-07-29T01:08:28;7.67;;;6.87;;
11865;SDS011;5992;52.744;6.898;2023-07-29T01:11:52;9.17;;;7.07;;
11865;SDS011;5992;52.744;6.898;2023-07-29T01:15:19;8.53;;;5.90;;
11865;SDS011;5992;52.744;6.898;2023-07-29T01:18:31;7.20;;;4.90;;
11865;SDS011;5992;52.744;6.898;2023-07-29T01:21:55;7.70;;;6.55;;
11865;SDS011;5992;52.744;6.898;2023-07-29T01:25:20;6.90;;;5.75;;
11865;SDS011;5992;52.744;6.898;2023-07-29T01:28:45;6.37;;;5.77;;
11865;SDS011;5992;52.744;6.898;2023-07-29T01:32:00;8.70;;;6.10;;
11865;SDS011;5992;52.744;6.898;2023-07-29T01:35:23;8.05;;;6.85;;
11865;SDS011;5992;52.744;6.898;2023-07-29T01:38:35;6.73;;;6.13;;
11865;SDS011;5992;52.744;6.898;2023-07-29T01:42:01;6.90;;;6.20;;
11865;SDS011;5992;52.744;6.898;2023-07-29T01:45:13;6.30;;;5.65;;
11865;SDS011;5992;52.744;6.898;2023-07-29T01:48:38;5.67;;;5.17;;
11865;SDS011;5992;52.744;6.898;2023-07-29T01:51:49;9.07;;;5.87;;
11865;SDS011;5992;52.744;6.898;2023-07-29T01:55:04;6.33;;;5.57;;
11865;SDS011;5992;52.744;6.898;2023-07-29T01:58:18;7.23;;;5.30;;
11865;SDS011;5992;52.744;6.898;2023-07-29T02:01:43;6.85;;;4.75;;
11865;SDS011;5992;52.744;6.898;2023-07-29T02:04:55;7.70;;;6.05;;
11865;SDS011;5992;52.744;6.898;2023-07-29T02:07:55;6.35;;;5.70;;
11865;SDS011;5992;52.744;6.898;2023-07-29T02:11:07;5.90;;;5.40;;
11865;SDS011;5992;52.744;6.898;2023-07-29T02:14:20;7.47;;;5.30;;
11865;SDS011;5992;52.744;6.898;2023-07-29T02:17:49;6.63;;;5.60;;
11865;SDS011;5992;52.744;6.898;2023-07-29T02:21:12;6.17;;;5.53;;
11865;SDS011;5992;52.744;6.898;2023-07-29T02:24:25;5.55;;;5.05;;
11865;SDS011;5992;52.744;6.898;2023-07-29T02:27:37;5.90;;;5.30;;
11865;SDS011;5992;52.744;6.898;2023-07-29T02:31:08;5.50;;;5.00;;
11865;SDS011;5992;52.744;6.898;2023-07-29T02:34:07;5.73;;;5.13;;
11865;SDS011;5992;52.744;6.898;2023-07-29T02:37:20;5.23;;;4.53;;
11865;SDS011;5992;52.744;6.898;2023-07-29T02:40:44;4.65;;;4.25;;
11865;SDS011;5992;52.744;6.898;2023-07-29T02:43:47;7.60;;;5.20;;
11865;SDS011;5992;52.744;6.898;2023-07-29T02:47:10;4.77;;;4.27;;
11865;SDS011;5992;52.744;6.898;2023-07-29T02:50:23;3.80;;;3.50;;
11865;SDS011;5992;52.744;6.898;2023-07-29T02:53:36;4.57;;;4.17;;
11865;SDS011;5992;52.744;6.898;2023-07-29T02:56:51;4.57;;;3.87;;
11865;SDS011;5992;52.744;6.898;2023-07-29T03:00:04;6.30;;;4.03;;
11865;SDS011;5992;52.744;6.898;2023-07-29T03:03:18;3.85;;;3.50;;
11865;SDS011;5992;52.744;6.898;2023-07-29T03:06:44;4.33;;;3.67;;
11865;SDS011;5992;52.744;6.898;2023-07-29T03:09:59;3.43;;;3.13;;
11865;SDS011;5992;52.744;6.898;2023-07-29T03:13:11;3.53;;;3.30;;
11865;SDS011;5992;52.744;6.898;2023-07-29T03:16:11;3.73;;;3.43;;
11865;SDS011;5992;52.744;6.898;2023-07-29T03:19:36;4.30;;;3.20;;
11865;SDS011;5992;52.744;6.898;2023-07-29T03:22:49;3.60;;;3.30;;
11865;SDS011;5992;52.744;6.898;2023-07-29T03:26:01;3.45;;;3.05;;
11865;SDS011;5992;52.744;6.898;2023-07-29T03:29:13;3.60;;;3.30;;
11865;SDS011;5992;52.744;6.898;2023-07-29T03:32:25;6.05;;;3.20;;
11865;SDS011;5992;52.744;6.898;2023-07-29T03:35:38;5.17;;;3.13;;
11865;SDS011;5992;52.744;6.898;2023-07-29T03:39:03;2.65;;;2.45;;
11865;SDS011;5992;52.744;6.898;2023-07-29T03:42:15;4.10;;;2.85;;
11865;SDS011;5992;52.744;6.898;2023-07-29T03:45:27;3.35;;;2.70;;
11865;SDS011;5992;52.744;6.898;2023-07-29T03:48:51;2.57;;;2.37;;
11865;SDS011;5992;52.744;6.898;2023-07-29T03:52:06;3.70;;;2.57;;
11865;SDS011;5992;52.744;6.898;2023-07-29T03:55:19;2.97;;;2.53;;
11865;SDS011;5992;52.744;6.898;2023-07-29T03:58:43;2.70;;;2.50;;
11865;SDS011;5992;52.744;6.898;2023-07-29T04:02:10;2.45;;;2.25;;
11865;SDS011;5992;52.744;6.898;2023-07-29T04:05:23;2.60;;;2.27;;
11865;SDS011;5992;52.744;6.898;2023-07-29T04:08:39;2.07;;;1.87;;
11865;SDS011;5992;52.744;6.898;2023-07-29T04:12:05;3.00;;;2.77;;
11865;SDS011;5992;52.744;6.898;2023-07-29T04:15:05;3.93;;;2.10;;
11865;SDS011;5992;52.744;6.898;2023-07-29T04:18:18;4.00;;;2.70;;
11865;SDS011;5992;52.744;6.898;2023-07-29T04:21:30;3.10;;;2.70;;
11865;SDS011;5992;52.744;6.898;2023-07-29T04:24:43;2.13;;;2.03;;
11865;SDS011;5992;52.744;6.898;2023-07-29T04:27:55;3.25;;;2.20;;
11865;SDS011;5992;52.744;6.898;2023-07-29T04:31:07;2.63;;;2.23;;
11865;SDS011;5992;52.744;6.898;2023-07-29T04:34:07;2.90;;;2.30;;
11865;SDS011;5992;52.744;6.898;2023-07-29T04:37:20;2.35;;;2.15;;
11865;SDS011;5992;52.744;6.898;2023-07-29T04:40:21;3.30;;;2.70;;
11865;SDS011;5992;52.744;6.898;2023-07-29T04:43:47;2.50;;;1.90;;
11865;SDS011;5992;52.744;6.898;2023-07-29T04:46:48;2.43;;;2.23;;
11865;SDS011;5992;52.744;6.898;2023-07-29T04:50:00;1.90;;;1.80;;
11865;SDS011;5992;52.744;6.898;2023-07-29T04:53:01;1.97;;;1.87;;
11865;SDS011;5992;52.744;6.898;2023-07-29T04:56:27;1.60;;;1.50;;
11865;SDS011;5992;52.744;6.898;2023-07-29T04:59:52;2.05;;;1.95;;
11865;SDS011;5992;52.744;6.898;2023-07-29T05:03:04;1.63;;;1.50;;
11865;SDS011;5992;52.744;6.898;2023-07-29T05:06:16;3.00;;;1.90;;
11865;SDS011;5992;52.744;6.898;2023-07-29T05:09:28;4.27;;;2.20;;
11865;SDS011;5992;52.744;6.898;2023-07-29T05:12:41;4.40;;;2.10;;
11865;SDS011;5992;52.744;6.898;2023-07-29T05:16:10;2.93;;;1.83;;
11865;SDS011;5992;52.744;6.898;2023-07-29T05:19:10;6.63;;;2.10;;
11865;SDS011;5992;52.744;6.898;2023-07-29T05:22:34;2.65;;;2.00;;
11865;SDS011;5992;52.744;6.898;2023-07-29T05:25:47;5.10;;;2.40;;
11865;SDS011;5992;52.744;6.898;2023-07-29T05:29:05;2.10;;;2.00;;
11865;SDS011;5992;52.744;6.898;2023-07-29T05:32:29;2.03;;;1.93;;
11865;SDS011;5992;52.744;6.898;2023-07-29T05:35:41;4.50;;;3.30;;
11865;SDS011;5992;52.744;6.898;2023-07-29T05:38:41;5.37;;;2.80;;
11865;SDS011;5992;52.744;6.898;2023-07-29T05:41:53;2.70;;;2.00;;
11865;SDS011;5992;52.744;6.898;2023-07-29T05:44:55;3.03;;;2.33;;
11865;SDS011;5992;52.744;6.898;2023-07-29T05:48:19;3.50;;;2.95;;
11865;SDS011;5992;52.744;6.898;2023-07-29T05:51:20;3.80;;;2.63;;
11865;SDS011;5992;52.744;6.898;2023-07-29T05:54:33;3.23;;;2.93;;
11865;SDS011;5992;52.744;6.898;2023-07-29T05:57:36;3.63;;;2.77;;
11865;SDS011;5992;52.744;6.898;2023-07-29T06:00:50;5.17;;;3.17;;
11865;SDS011;5992;52.744;6.898;2023-07-29T06:04:13;2.90;;;2.70;;
11865;SDS011;5992;52.744;6.898;2023-07-29T06:07:25;4.60;;;3.30;;
11865;SDS011;5992;52.744;6.898;2023-07-29T06:10:37;4.20;;;3.15;;
11865;SDS011;5992;52.744;6.898;2023-07-29T06:13:50;5.60;;;3.70;;
11865;SDS011;5992;52.744;6.898;2023-07-29T06:17:04;5.80;;;3.15;;
11865;SDS011;5992;52.744;6.898;2023-07-29T06:20:28;4.80;;;3.45;;
11865;SDS011;5992;52.744;6.898;2023-07-29T06:23:41;4.40;;;3.80;;
11865;SDS011;5992;52.744;6.898;2023-07-29T06:26:41;6.15;;;3.50;;
11865;SDS011;5992;52.744;6.898;2023-07-29T06:29:56;7.05;;;4.10;;
11865;SDS011;5992;52.744;6.898;2023-07-29T06:32:58;8.00;;;3.77;;
11865;SDS011;5992;52.744;6.898;2023-07-29T06:36:22;3.93;;;3.40;;
11865;SDS011;5992;52.744;6.898;2023-07-29T06:39:22;5.37;;;3.33;;
11865;SDS011;5992;52.744;6.898;2023-07-29T06:42:34;5.30;;;3.50;;
11865;SDS011;5992;52.744;6.898;2023-07-29T06:45:34;9.30;;;3.50;;
11865;SDS011;5992;52.744;6.898;2023-07-29T06:48:48;6.25;;;3.40;;
11865;SDS011;5992;52.744;6.898;2023-07-29T06:52:00;5.53;;;3.57;;
11865;SDS011;5992;52.744;6.898;2023-07-29T06:55:12;6.70;;;3.83;;
11865;SDS011;5992;52.744;6.898;2023-07-29T06:58:13;7.90;;;4.07;;
11865;SDS011;5992;52.744;6.898;2023-07-29T07:01:26;3.47;;;3.00;;
11865;SDS011;5992;52.744;6.898;2023-07-29T07:04:28;4.05;;;3.10;;
11865;SDS011;5992;52.744;6.898;2023-07-29T07:07:53;3.60;;;3.23;;
11865;SDS011;5992;52.744;6.898;2023-07-29T07:10:53;4.30;;;3.55;;
11865;SDS011;5992;52.744;6.898;2023-07-29T07:14:08;6.60;;;3.50;;
11865;SDS011;5992;52.744;6.898;2023-07-29T07:17:09;3.83;;;3.03;;
11865;SDS011;5992;52.744;6.898;2023-07-29T07:20:23;5.37;;;3.37;;
11865;SDS011;5992;52.744;6.898;2023-07-29T07:23:35;4.90;;;3.30;;
11865;SDS011;5992;52.744;6.898;2023-07-29T07:26:47;3.73;;;3.03;;
11865;SDS011;5992;52.744;6.898;2023-07-29T07:29:47;4.45;;;3.70;;
11865;SDS011;5992;52.744;6.898;2023-07-29T07:33:00;5.17;;;3.70;;
11865;SDS011;5992;52.744;6.898;2023-07-29T07:36:14;3.37;;;2.77;;
11865;SDS011;5992;52.744;6.898;2023-07-29T07:39:43;3.03;;;2.67;;
11865;SDS011;5992;52.744;6.898;2023-07-29T07:42:55;5.23;;;3.13;;
11865;SDS011;5992;52.744;6.898;2023-07-29T07:46:08;4.55;;;3.25;;
11865;SDS011;5992;52.744;6.898;2023-07-29T07:49:08;6.80;;;2.90;;
11865;SDS011;5992;52.744;6.898;2023-07-29T07:52:22;5.47;;;3.60;;
11865;SDS011;5992;52.744;6.898;2023-07-29T07:55:35;3.43;;;2.80;;
11865;SDS011;5992;52.744;6.898;2023-07-29T07:58:47;3.20;;;2.70;;
11865;SDS011;5992;52.744;6.898;2023-07-29T08:01:47;3.35;;;2.50;;
11865;SDS011;5992;52.744;6.898;2023-07-29T08:05:02;5.50;;;2.90;;
11865;SDS011;5992;52.744;6.898;2023-07-29T08:08:03;4.53;;;3.07;;
11865;SDS011;5992;52.744;6.898;2023-07-29T08:11:29;4.67;;;2.27;;
11865;SDS011;5992;52.744;6.898;2023-07-29T08:14:29;2.73;;;2.13;;
11865;SDS011;5992;52.744;6.898;2023-07-29T08:17:41;3.85;;;2.60;;
11865;SDS011;5992;52.744;6.898;2023-07-29T08:20:41;2.80;;;2.37;;
11865;SDS011;5992;52.744;6.898;2023-07-29T08:23:54;3.03;;;2.70;;
11865;SDS011;5992;52.744;6.898;2023-07-29T08:27:07;3.73;;;2.70;;
11865;SDS011;5992;52.744;6.898;2023-07-29T08:30:19;4.37;;;2.63;;
11865;SDS011;5992;52.744;6.898;2023-07-29T08:33:20;3.75;;;2.15;;
11865;SDS011;5992;52.744;6.898;2023-07-29T08:36:33;7.10;;;2.50;;
11865;SDS011;5992;52.744;6.898;2023-07-29T08:39:35;3.37;;;1.90;;
11865;SDS011;5992;52.744;6.898;2023-07-29T08:43:03;5.47;;;2.30;;
11865;SDS011;5992;52.744;6.898;2023-07-29T08:46:15;2.03;;;1.93;;
11865;SDS011;5992;52.744;6.898;2023-07-29T08:49:39;2.13;;;1.90;;
11865;SDS011;5992;52.744;6.898;2023-07-29T08:52:51;2.40;;;2.07;;
11865;SDS011;5992;52.744;6.898;2023-07-29T08:56:17;2.70;;;1.90;;
11865;SDS011;5992;52.744;6.898;2023-07-29T08:59:30;1.60;;;1.50;;
11865;SDS011;5992;52.744;6.898;2023-07-29T09:02:55;2.55;;;1.70;;
11865;SDS011;5992;52.744;6.898;2023-07-29T09:06:07;2.33;;;1.90;;
11865;SDS011;5992;52.744;6.898;2023-07-29T09:09:31;2.73;;;1.60;;
11865;SDS011;5992;52.744;6.898;2023-07-29T09:12:32;2.93;;;1.90;;
11865;SDS011;5992;52.744;6.898;2023-07-29T09:15:57;3.53;;;1.60;;
11865;SDS011;5992;52.744;6.898;2023-07-29T09:19:09;2.07;;;1.53;;
11865;SDS011;5992;52.744;6.898;2023-07-29T09:22:37;2.23;;;1.70;;
11865;SDS011;5992;52.744;6.898;2023-07-29T09:25:38;2.87;;;2.00;;
11865;SDS011;5992;52.744;6.898;2023-07-29T09:29:04;2.13;;;1.77;;
11865;SDS011;5992;52.744;6.898;2023-07-29T09:32:17;2.03;;;1.63;;
11865;SDS011;5992;52.744;6.898;2023-07-29T09:35:43;2.60;;;1.60;;
11865;SDS011;5992;52.744;6.898;2023-07-29T09:38:55;1.63;;;1.47;;
11865;SDS011;5992;52.744;6.898;2023-07-29T09:42:19;2.75;;;1.60;;
11865;SDS011;5992;52.744;6.898;2023-07-29T09:45:33;3.07;;;1.57;;
11865;SDS011;5992;52.744;6.898;2023-07-29T09:48:58;2.40;;;1.27;;
11865;SDS011;5992;52.744;6.898;2023-07-29T09:52:10;3.73;;;1.80;;
11865;SDS011;5992;52.744;6.898;2023-07-29T09:55:25;1.50;;;1.20;;
11865;SDS011;5992;52.744;6.898;2023-07-29T09:58:37;1.70;;;1.40;;
11865;SDS011;5992;52.744;6.898;2023-07-29T10:02:03;4.57;;;1.97;;
11865;SDS011;5992;52.744;6.898;2023-07-29T10:05:29;2.23;;;1.77;;
11865;SDS011;5992;52.744;6.898;2023-07-29T10:08:40;2.60;;;1.40;;
11865;SDS011;5992;52.744;6.898;2023-07-29T10:12:07;3.53;;;1.20;;
11865;SDS011;5992;52.744;6.898;2023-07-29T10:15:19;1.80;;;1.40;;
11865;SDS011;5992;52.744;6.898;2023-07-29T10:18:44;2.80;;;1.40;;
11865;SDS011;5992;52.744;6.898;2023-07-29T10:21:58;1.27;;;1.17;;
11865;SDS011;5992;52.744;6.898;2023-07-29T10:25:22;1.23;;;1.13;;
11865;SDS011;5992;52.744;6.898;2023-07-29T10:28:34;3.20;;;1.37;;
11865;SDS011;5992;52.744;6.898;2023-07-29T10:32:01;1.20;;;1.10;;
11865;SDS011;5992;52.744;6.898;2023-07-29T10:35:17;1.73;;;1.30;;
11865;SDS011;5992;52.744;6.898;2023-07-29T10:38:42;3.07;;;1.30;;
11865;SDS011;5992;52.744;6.898;2023-07-29T10:41:57;4.40;;;1.30;;
11865;SDS011;5992;52.744;6.898;2023-07-29T10:45:25;1.37;;;1.20;;
11865;SDS011;5992;52.744;6.898;2023-07-29T10:48:42;2.10;;;1.87;;
11865;SDS011;5992;52.744;6.898;2023-07-29T10:52:08;1.30;;;1.30;;
11865;SDS011;5992;52.744;6.898;2023-07-29T10:55:24;2.27;;;1.87;;
11865;SDS011;5992;52.744;6.898;2023-07-29T10:58:48;2.93;;;1.70;;
11865;SDS011;5992;52.744;6.898;2023-07-29T11:01:50;2.50;;;1.40;;
11865;SDS011;5992;52.744;6.898;2023-07-29T11:05:18;6.10;;;1.95;;
11865;SDS011;5992;52.744;6.898;2023-07-29T11:08:20;2.30;;;1.40;;
11865;SDS011;5992;52.744;6.898;2023-07-29T11:11:46;1.87;;;1.73;;
11865;SDS011;5992;52.744;6.898;2023-07-29T11:14:59;2.83;;;1.50;;
11865;SDS011;5992;52.744;6.898;2023-07-29T11:18:26;3.33;;;2.07;;
11865;SDS011;5992;52.744;6.898;2023-07-29T11:21:41;1.90;;;1.80;;
11865;SDS011;5992;52.744;6.898;2023-07-29T11:25:11;1.67;;;1.57;;
11865;SDS011;5992;52.744;6.898;2023-07-29T11:28:22;1.90;;;1.80;;
11865;SDS011;5992;52.744;6.898;2023-07-29T11:31:38;2.57;;;1.70;;
11865;SDS011;5992;52.744;6.898;2023-07-29T11:34:50;1.73;;;1.63;;
11865;SDS011;5992;52.744;6.898;2023-07-29T11:38:02;1.73;;;1.63;;
11865;SDS011;5992;52.744;6.898;2023-07-29T11:41:18;2.20;;;2.00;;
11865;SDS011;5992;52.744;6.898;2023-07-29T11:44:44;3.93;;;2.20;;
11865;SDS011;5992;52.744;6.898;2023-07-29T11:47:55;1.90;;;1.40;;
11865;SDS011;5992;52.744;6.898;2023-07-29T11:51:09;1.83;;;1.70;;
11865;SDS011;5992;52.744;6.898;2023-07-29T11:54:21;3.10;;;2.37;;
11865;SDS011;5992;52.744;6.898;2023-07-29T11:57:49;3.27;;;2.13;;
11865;SDS011;5992;52.744;6.898;2023-07-29T12:01:01;2.50;;;1.90;;
11865;SDS011;5992;52.744;6.898;2023-07-29T12:04:24;1.90;;;1.50;;
11865;SDS011;5992;52.744;6.898;2023-07-29T12:07:37;3.43;;;1.80;;
11865;SDS011;5992;52.744;6.898;2023-07-29T12:11:02;3.97;;;2.30;;
11865;SDS011;5992;52.744;6.898;2023-07-29T12:14:17;2.25;;;2.05;;
11865;SDS011;5992;52.744;6.898;2023-07-29T12:17:42;2.20;;;1.90;;
11865;SDS011;5992;52.744;6.898;2023-07-29T12:20:57;2.07;;;1.70;;
11865;SDS011;5992;52.744;6.898;2023-07-29T12:24:22;2.30;;;1.93;;
11865;SDS011;5992;52.744;6.898;2023-07-29T12:27:22;2.97;;;1.77;;
11865;SDS011;5992;52.744;6.898;2023-07-29T12:30:49;4.40;;;1.60;;
11865;SDS011;5992;52.744;6.898;2023-07-29T12:34:02;3.33;;;1.87;;
11865;SDS011;5992;52.744;6.898;2023-07-29T12:37:18;3.87;;;1.80;;
11865;SDS011;5992;52.744;6.898;2023-07-29T12:40:30;2.20;;;1.50;;
11865;SDS011;5992;52.744;6.898;2023-07-29T12:43:42;1.47;;;1.37;;
11865;SDS011;5992;52.744;6.898;2023-07-29T12:46:44;2.10;;;1.60;;
11865;SDS011;5992;52.744;6.898;2023-07-29T12:50:10;2.10;;;1.20;;
11865;SDS011;5992;52.744;6.898;2023-07-29T12:53:21;1.70;;;1.60;;
11865;SDS011;5992;52.744;6.898;2023-07-29T12:56:34;3.50;;;1.47;;
11865;SDS011;5992;52.744;6.898;2023-07-29T12:59:34;1.90;;;1.70;;
11865;SDS011;5992;52.744;6.898;2023-07-29T13:02:47;2.07;;;1.40;;
11865;SDS011;5992;52.744;6.898;2023-07-29T13:06:00;4.30;;;1.90;;
11865;SDS011;5992;52.744;6.898;2023-07-29T13:09:13;1.57;;;1.47;;
11865;SDS011;5992;52.744;6.898;2023-07-29T13:12:13;2.70;;;1.80;;
11865;SDS011;5992;52.744;6.898;2023-07-29T13:15:45;1.60;;;1.50;;
11865;SDS011;5992;52.744;6.898;2023-07-29T13:18:57;2.57;;;1.50;;
11865;SDS011;5992;52.744;6.898;2023-07-29T13:22:26;2.07;;;1.73;;
11865;SDS011;5992;52.744;6.898;2023-07-29T13:25:38;1.90;;;1.70;;
11865;SDS011;5992;52.744;6.898;2023-07-29T13:28:51;1.80;;;1.60;;
11865;SDS011;5992;52.744;6.898;2023-07-29T13:31:52;4.37;;;1.60;;
11865;SDS011;5992;52.744;6.898;2023-07-29T13:35:06;1.50;;;1.40;;
11865;SDS011;5992;52.744;6.898;2023-07-29T13:38:19;1.87;;;1.70;;
11865;SDS011;5992;52.744;6.898;2023-07-29T13:41:33;2.53;;;1.70;;
11865;SDS011;5992;52.744;6.898;2023-07-29T13:44:33;4.07;;;1.87;;
11865;SDS011;5992;52.744;6.898;2023-07-29T13:47:48;1.70;;;1.60;;
11865;SDS011;5992;52.744;6.898;2023-07-29T13:51:01;1.67;;;1.53;;
11865;SDS011;5992;52.744;6.898;2023-07-29T13:54:26;1.35;;;1.15;;
11865;SDS011;5992;52.744;6.898;2023-07-29T13:57:26;1.97;;;1.40;;
11865;SDS011;5992;52.744;6.898;2023-07-29T14:00:38;1.60;;;1.50;;
11865;SDS011;5992;52.744;6.898;2023-07-29T14:03:51;1.20;;;1.10;;
11865;SDS011;5992;52.744;6.898;2023-07-29T14:06:52;2.70;;;1.50;;
11865;SDS011;5992;52.744;6.898;2023-07-29T14:10:17;1.23;;;1.13;;
11865;SDS011;5992;52.744;6.898;2023-07-29T14:13:18;1.77;;;1.20;;
11865;SDS011;5992;52.744;6.898;2023-07-29T14:16:30;1.27;;;1.17;;
11865;SDS011;5992;52.744;6.898;2023-07-29T14:19:30;1.27;;;1.20;;
11865;SDS011;5992;52.744;6.898;2023-07-29T14:22:55;1.70;;;1.20;;
11865;SDS011;5992;52.744;6.898;2023-07-29T14:26:08;1.00;;;1.00;;
11865;SDS011;5992;52.744;6.898;2023-07-29T14:29:21;1.17;;;1.00;;
11865;SDS011;5992;52.744;6.898;2023-07-29T14:32:33;1.20;;;1.20;;
11865;SDS011;5992;52.744;6.898;2023-07-29T14:35:46;3.00;;;1.10;;
11865;SDS011;5992;52.744;6.898;2023-07-29T14:38:47;1.20;;;1.10;;
11865;SDS011;5992;52.744;6.898;2023-07-29T14:42:13;1.97;;;1.43;;
11865;SDS011;5992;52.744;6.898;2023-07-29T14:45:14;1.67;;;0.90;;
11865;SDS011;5992;52.744;6.898;2023-07-29T14:48:27;1.20;;;1.10;;
11865;SDS011;5992;52.744;6.898;2023-07-29T14:51:27;1.10;;;0.90;;
11865;SDS011;5992;52.744;6.898;2023-07-29T14:54:41;2.55;;;1.90;;
11865;SDS011;5992;52.744;6.898;2023-07-29T14:57:54;1.17;;;0.93;;
11865;SDS011;5992;52.744;6.898;2023-07-29T15:01:07;1.20;;;1.20;;
11865;SDS011;5992;52.744;6.898;2023-07-29T15:04:07;4.90;;;2.13;;
11865;SDS011;5992;52.744;6.898;2023-07-29T15:07:20;2.20;;;1.65;;
11865;SDS011;5992;52.744;6.898;2023-07-29T15:10:21;2.17;;;1.60;;
11865;SDS011;5992;52.744;6.898;2023-07-29T15:13:46;4.40;;;2.20;;
11865;SDS011;5992;52.744;6.898;2023-07-29T15:16:46;5.17;;;2.47;;
11865;SDS011;5992;52.744;6.898;2023-07-29T15:20:01;5.67;;;2.40;;
11865;SDS011;5992;52.744;6.898;2023-07-29T15:23:13;4.83;;;2.20;;
11865;SDS011;5992;52.744;6.898;2023-07-29T15:26:26;2.50;;;1.70;;
11865;SDS011;5992;52.744;6.898;2023-07-29T15:29:39;1.80;;;1.60;;
11865;SDS011;5992;52.744;6.898;2023-07-29T15:32:53;4.80;;;1.80;;
11865;SDS011;5992;52.744;6.898;2023-07-29T15:35:53;2.83;;;1.83;;
11865;SDS011;5992;52.744;6.898;2023-07-29T15:39:07;1.70;;;1.60;;
11865;SDS011;5992;52.744;6.898;2023-07-29T15:42:18;4.67;;;1.80;;
11865;SDS011;5992;52.744;6.898;2023-07-29T15:45:44;3.50;;;1.87;;
11865;SDS011;5992;52.744;6.898;2023-07-29T15:48:57;1.53;;;1.40;;
11865;SDS011;5992;52.744;6.898;2023-07-29T15:52:10;1.90;;;1.50;;
11865;SDS011;5992;52.744;6.898;2023-07-29T15:55:12;1.40;;;1.30;;
11865;SDS011;5992;52.744;6.898;2023-07-29T15:58:38;2.33;;;1.40;;
11865;SDS011;5992;52.744;6.898;2023-07-29T16:02:03;1.43;;;1.33;;
11865;SDS011;5992;52.744;6.898;2023-07-29T16:05:27;1.30;;;1.20;;
11865;SDS011;5992;52.744;6.898;2023-07-29T16:08:27;2.77;;;1.20;;
11865;SDS011;5992;52.744;6.898;2023-07-29T16:11:40;1.43;;;1.30;;
11865;SDS011;5992;52.744;6.898;2023-07-29T16:14:42;2.13;;;1.50;;
11865;SDS011;5992;52.744;6.898;2023-07-29T16:18:06;2.60;;;1.30;;
11865;SDS011;5992;52.744;6.898;2023-07-29T16:21:06;1.97;;;1.87;;
11865;SDS011;5992;52.744;6.898;2023-07-29T16:24:22;1.90;;;1.50;;
11865;SDS011;5992;52.744;6.898;2023-07-29T16:27:22;1.47;;;1.03;;
11865;SDS011;5992;52.744;6.898;2023-07-29T16:30:36;1.47;;;1.37;;
11865;SDS011;5992;52.744;6.898;2023-07-29T16:33:48;2.47;;;1.40;;
11865;SDS011;5992;52.744;6.898;2023-07-29T16:37:00;1.27;;;1.20;;
11865;SDS011;5992;52.744;6.898;2023-07-29T16:40:00;2.20;;;1.40;;
11865;SDS011;5992;52.744;6.898;2023-07-29T16:43:12;1.60;;;1.43;;
11865;SDS011;5992;52.744;6.898;2023-07-29T16:46:14;2.20;;;1.10;;
11865;SDS011;5992;52.744;6.898;2023-07-29T16:49:38;1.10;;;1.10;;
11865;SDS011;5992;52.744;6.898;2023-07-29T16:52:38;3.23;;;1.70;;
11865;SDS011;5992;52.744;6.898;2023-07-29T16:55:51;1.60;;;1.50;;
11865;SDS011;5992;52.744;6.898;2023-07-29T16:59:03;3.00;;;1.60;;
11865;SDS011;5992;52.744;6.898;2023-07-29T17:02:18;2.53;;;1.67;;
11865;SDS011;5992;52.744;6.898;2023-07-29T17:05:30;2.10;;;1.53;;
11865;SDS011;5992;52.744;6.898;2023-07-29T17:08:42;6.10;;;2.23;;
11865;SDS011;5992;52.744;6.898;2023-07-29T17:11:42;2.73;;;1.20;;
11865;SDS011;5992;52.744;6.898;2023-07-29T17:14:58;2.60;;;1.60;;
11865;SDS011;5992;52.744;6.898;2023-07-29T17:18:12;1.53;;;1.40;;
11865;SDS011;5992;52.744;6.898;2023-07-29T17:21:37;1.50;;;1.40;;
11865;SDS011;5992;52.744;6.898;2023-07-29T17:24:37;2.00;;;1.90;;
11865;SDS011;5992;52.744;6.898;2023-07-29T17:27:49;2.80;;;1.40;;
11865;SDS011;5992;52.744;6.898;2023-07-29T17:30:49;1.43;;;1.33;;
11865;SDS011;5992;52.744;6.898;2023-07-29T17:34:16;1.80;;;1.50;;
11865;SDS011;5992;52.744;6.898;2023-07-29T17:37:28;1.07;;;1.07;;
11865;SDS011;5992;52.744;6.898;2023-07-29T17:40:40;2.25;;;1.50;;
11865;SDS011;5992;52.744;6.898;2023-07-29T17:43:40;1.37;;;1.27;;
11865;SDS011;5992;52.744;6.898;2023-07-29T17:46:53;1.70;;;1.60;;
11865;SDS011;5992;52.744;6.898;2023-07-29T17:49:55;2.93;;;1.70;;
11865;SDS011;5992;52.744;6.898;2023-07-29T17:53:20;1.97;;;1.73;;
11865;SDS011;5992;52.744;6.898;2023-07-29T17:56:20;1.63;;;1.50;;
11865;SDS011;5992;52.744;6.898;2023-07-29T17:59:33;2.55;;;1.90;;
11865;SDS011;5992;52.744;6.898;2023-07-29T18:02:33;2.47;;;2.27;;
11865;SDS011;5992;52.744;6.898;2023-07-29T18:05:48;2.17;;;1.80;;
11865;SDS011;5992;52.744;6.898;2023-07-29T18:09:07;2.10;;;1.90;;
11865;SDS011;5992;52.744;6.898;2023-07-29T18:12:23;5.37;;;2.30;;
11865;SDS011;5992;52.744;6.898;2023-07-29T18:15:24;2.90;;;2.70;;
11865;SDS011;5992;52.744;6.898;2023-07-29T18:18:48;6.45;;;2.50;;
11865;SDS011;5992;52.744;6.898;2023-07-29T18:21:50;2.80;;;2.35;;
11865;SDS011;5992;52.744;6.898;2023-07-29T18:25:16;2.23;;;2.07;;
11865;SDS011;5992;52.744;6.898;2023-07-29T18:28:20;3.73;;;2.87;;
11865;SDS011;5992;52.744;6.898;2023-07-29T18:31:32;2.43;;;2.23;;
11865;SDS011;5992;52.744;6.898;2023-07-29T18:34:32;2.34;;;2.07;;
11865;SDS011;5992;52.744;6.898;2023-07-29T18:37:46;2.83;;;2.20;;
11865;SDS011;5992;52.744;6.898;2023-07-29T18:40:59;3.65;;;2.20;;
11865;SDS011;5992;52.744;6.898;2023-07-29T18:44:11;4.13;;;2.27;;
11865;SDS011;5992;52.744;6.898;2023-07-29T18:47:11;2.93;;;2.73;;
11865;SDS011;5992;52.744;6.898;2023-07-29T18:50:24;2.60;;;2.40;;
11865;SDS011;5992;52.744;6.898;2023-07-29T18:53:25;3.63;;;2.43;;
11865;SDS011;5992;52.744;6.898;2023-07-29T18:56:51;4.77;;;2.77;;
11865;SDS011;5992;52.744;6.898;2023-07-29T18:59:51;2.67;;;2.43;;
11865;SDS011;5992;52.744;6.898;2023-07-29T19:03:04;2.65;;;2.45;;
11865;SDS011;5992;52.744;6.898;2023-07-29T19:06:04;3.50;;;2.15;;
11865;SDS011;5992;52.744;6.898;2023-07-29T19:09:20;2.40;;;2.20;;
11865;SDS011;5992;52.744;6.898;2023-07-29T19:12:32;4.53;;;2.40;;
11865;SDS011;5992;52.744;6.898;2023-07-29T19:15:49;4.80;;;2.27;;
11865;SDS011;5992;52.744;6.898;2023-07-29T19:19:01;5.55;;;2.00;;
11865;SDS011;5992;52.744;6.898;2023-07-29T19:22:13;2.95;;;1.30;;
11865;SDS011;5992;52.744;6.898;2023-07-29T19:25:26;1.70;;;1.60;;
11865;SDS011;5992;52.744;6.898;2023-07-29T19:28:51;1.60;;;1.50;;
11865;SDS011;5992;52.744;6.898;2023-07-29T19:31:52;2.83;;;1.60;;
11865;SDS011;5992;52.744;6.898;2023-07-29T19:35:04;2.90;;;1.80;;
11865;SDS011;5992;52.744;6.898;2023-07-29T19:38:05;5.60;;;1.85;;
11865;SDS011;5992;52.744;6.898;2023-07-29T19:41:19;2.90;;;1.80;;